Time;durP1;ratioP1;P1;durP2;ratioP2;P2;SDS_P1;SDS_P2;PMS_P1;PMS_P2;Temp;Humidity;BMP_temperature;BMP_pressure;BME280_temperature;BME280_humidity;BME280_pressure;Samples;Min_cycle;Max_cycle;Signal;HPM_P1;HPM_P2
2022/11/11 00:01:13;;;;;;;26.58;24.63;;;;;;;12.72;64.40;102751.06;5029954;28;20381;-71
2022/11/11 00:03:38;;;;;;;25.73;23.95;;;;;;;12.72;64.62;102752.94;5038180;28;20428;-71
2022/11/11 00:06:08;;;;;;;25.45;23.80;;;;;;;12.70;64.50;102750.47;5013895;28;20534;-71
2022/11/11 00:08:34;;;;;;;26.58;24.67;;;;;;;12.70;64.50;102749.59;5020093;28;20029;-71
2022/11/11 00:11:01;;;;;;;27.50;25.33;;;;;;;12.69;64.44;102753.38;5018133;28;20417;-72
2022/11/11 00:13:27;;;;;;;24.92;23.33;;;;;;;12.68;64.56;102747.13;5027861;28;20042;-72
2022/11/11 00:15:52;;;;;;;27.77;25.70;;;;;;;12.69;64.43;102743.34;5015330;28;20084;-71
2022/11/11 00:27:07;;;;;;;27.35;25.30;;;;;;;12.65;64.45;102738.53;5014728;28;20124;-72
2022/11/11 00:29:32;;;;;;;25.88;24.13;;;;;;;12.64;64.77;102743.13;5016913;28;20041;-71
2022/11/11 00:35:51;;;;;;;27.02;25.25;;;;;;;12.65;64.67;102754.81;5019053;28;20057;-72
2022/11/11 00:37:27;;;;;;;25.73;23.60;;;;;;;12.64;64.55;102759.41;5042616;28;20104;-72
2022/11/11 00:39:52;;;;;;;27.00;25.10;;;;;;;12.63;64.96;102770.47;5036438;28;20080;-70
2022/11/11 00:42:18;;;;;;;24.05;22.63;;;;;;;12.63;64.67;102759.63;5023002;28;20037;-70
2022/11/11 00:44:43;;;;;;;25.73;23.83;;;;;;;12.63;64.70;102768.59;5029039;28;20085;-70
2022/11/11 00:52:38;;;;;;;24.67;22.95;;;;;;;12.61;64.51;102770.69;5035207;28;20552;-72
2022/11/11 00:55:04;;;;;;;25.10;22.75;;;;;;;12.61;64.61;102764.41;5037239;28;20041;-71
2022/11/11 00:57:31;;;;;;;24.50;22.88;;;;;;;12.61;64.82;102765.25;5018392;28;20447;-70
2022/11/11 00:59:56;;;;;;;25.95;24.05;;;;;;;12.61;64.51;102773.38;5012711;28;20485;-70
2022/11/11 01:02:21;;;;;;;24.30;22.38;;;;;;;12.62;64.83;102776.91;5029139;28;20057;-70
2022/11/11 01:04:47;;;;;;;24.63;22.88;;;;;;;12.61;64.83;102784.22;5026529;28;20472;-71
2022/11/11 01:07:12;;;;;;;24.50;22.52;;;;;;;12.61;64.61;102786.09;5013192;28;20057;-70
2022/11/11 01:09:37;;;;;;;27.67;25.50;;;;;;;12.61;64.76;102784.22;5013119;28;20435;-71
2022/11/11 01:12:03;;;;;;;25.30;23.45;;;;;;;12.62;64.74;102785.06;5036804;28;20029;-71
2022/11/11 01:14:29;;;;;;;25.02;22.67;;;;;;;12.61;64.62;102789.66;5033546;28;20124;-71
2022/11/11 01:16:54;;;;;;;24.10;22.52;;;;;;;12.61;64.65;102794.25;5027526;28;20041;-71
2022/11/11 01:19:20;;;;;;;24.20;21.98;;;;;;;12.61;64.49;102791.53;5012918;28;20451;-71
2022/11/11 01:21:45;;;;;;;48.90;23.25;;;;;;;12.61;65.03;102788.81;5015985;28;20053;-72
2022/11/11 01:24:10;;;;;;;23.55;21.92;;;;;;;12.61;64.92;102786.09;5012757;28;20026;-71
2022/11/11 01:26:36;;;;;;;26.92;24.60;;;;;;;12.61;64.67;102775.25;5044175;28;20028;-71
2022/11/11 01:29:01;;;;;;;24.90;23.05;;;;;;;12.61;64.78;102780.69;5017738;28;20030;-71
2022/11/11 01:31:27;;;;;;;25.73;23.98;;;;;;;12.61;64.72;102776.09;5012701;28;20133;-70
2022/11/11 01:33:52;;;;;;;26.55;24.67;;;;;;;12.61;64.93;102776.09;5021984;28;20080;-71
2022/11/11 01:36:22;;;;;;;24.40;22.55;;;;;;;12.62;64.67;102774.22;5023273;28;20036;-71
2022/11/11 01:38:50;;;;;;;23.80;22.25;;;;;;;12.61;64.60;102770.69;5023880;28;20026;-73
2022/11/11 01:41:37;;;;;;;26.65;24.58;;;;;;;12.61;64.57;102770.69;5012708;28;20477;-71
2022/11/11 01:44:11;;;;;;;28.63;26.02;;;;;;;12.61;64.96;102767.97;5041455;28;20119;-70
2022/11/11 01:46:46;;;;;;;24.88;22.98;;;;;;;12.61;64.82;102767.13;5016159;28;20069;-70
2022/11/11 01:49:20;;;;;;;27.13;24.42;;;;;;;12.60;64.82;102769.00;5025579;28;20448;-70
2022/11/11 01:51:52;;;;;;;26.80;24.90;;;;;;;12.59;65.07;102759.19;5038356;28;20030;-70
2022/11/11 01:54:35;;;;;;;25.40;23.75;;;;;;;12.61;64.90;102761.72;5012298;28;20026;-71
2022/11/11 01:57:26;;;;;;;23.00;21.30;;;;;;;12.60;64.56;102769.00;5021994;28;20499;-72
2022/11/11 01:59:59;;;;;;;25.50;23.65;;;;;;;12.60;64.65;102765.44;5015990;28;20042;-71
2022/11/11 02:02:46;;;;;;;25.05;23.30;;;;;;;12.60;65.02;102769.00;5017544;28;20113;-71
2022/11/11 02:08:01;;;;;;;26.55;24.33;;;;;;;12.60;64.92;102757.31;5012664;28;20439;-71
2022/11/11 02:10:29;;;;;;;26.20;24.30;;;;;;;12.57;65.01;102753.13;5012077;28;20050;-71
2022/11/11 02:15:39;;;;;;;25.90;24.00;;;;;;;12.58;64.90;102741.28;5011823;28;20095;-71
2022/11/11 02:18:05;;;;;;;24.73;23.08;;;;;;;12.58;65.01;102738.56;5014446;28;20087;-71
2022/11/11 02:20:35;;;;;;;23.45;21.52;;;;;;;12.59;64.82;102742.09;5011911;28;20029;-71
2022/11/11 02:23:06;;;;;;;25.13;23.35;;;;;;;12.57;64.78;102747.72;5019676;28;20021;-71
2022/11/11 02:25:35;;;;;;;26.80;24.83;;;;;;;12.58;65.03;102754.81;5012034;28;20030;-71
2022/11/11 02:28:05;;;;;;;26.70;24.60;;;;;;;12.59;64.83;102761.06;5017644;28;20529;-72
2022/11/11 02:30:30;;;;;;;26.00;24.10;;;;;;;12.58;64.77;102757.53;5011952;28;20022;-72
2022/11/11 02:32:56;;;;;;;27.00;24.80;;;;;;;12.59;65.04;102758.38;5023873;28;20034;-71
2022/11/11 02:35:31;;;;;;;23.05;21.73;;;;;;;12.58;65.06;102743.97;5011869;28;20355;-71
2022/11/11 02:37:56;;;;;;;25.90;23.70;;;;;;;12.59;64.83;102742.09;5022949;28;20471;-72
2022/11/11 02:40:31;;;;;;;22.60;21.40;;;;;;;12.59;64.81;102750.22;5036568;28;20029;-71
2022/11/11 02:42:57;;;;;;;26.52;24.13;;;;;;;12.59;65.05;102742.09;5037588;28;20029;-72
2022/11/11 02:45:23;;;;;;;25.25;23.20;;;;;;;12.59;64.86;102742.94;5030716;28;20060;-71
2022/11/11 02:47:48;;;;;;;25.90;23.75;;;;;;;12.59;65.07;102742.09;5031362;28;20128;-71
2022/11/11 02:50:14;;;;;;;25.50;23.80;;;;;;;12.58;64.96;102735.84;5018835;28;20037;-71
2022/11/11 02:52:39;;;;;;;25.00;23.05;;;;;;;12.58;64.84;102726.88;5027189;28;20048;-72
2022/11/11 02:55:05;;;;;;;25.48;23.65;;;;;;;12.58;65.01;102725.00;5013760;28;20367;-72
2022/11/11 02:57:31;;;;;;;27.67;25.05;;;;;;;12.59;64.92;102718.53;5030739;28;20556;-71
2022/11/11 02:59:58;;;;;;;23.35;21.88;;;;;;;12.59;64.98;102723.13;5031628;28;20049;-73
2022/11/11 03:02:26;;;;;;;23.13;21.63;;;;;;;12.58;64.83;102724.19;5021686;28;20037;-71
2022/11/11 03:04:53;;;;;;;24.45;22.60;;;;;;;12.59;64.74;102723.13;5017449;28;20062;-72
2022/11/11 03:07:18;;;;;;;24.30;22.65;;;;;;;12.60;64.87;102727.50;5010461;28;20550;-71
2022/11/11 03:09:43;;;;;;;25.00;23.10;;;;;;;12.59;65.03;102731.25;5031294;28;20057;-72
2022/11/11 03:12:09;;;;;;;25.83;23.83;;;;;;;12.59;64.82;102732.09;5025134;28;20065;-71
2022/11/11 03:14:34;;;;;;;24.85;23.20;;;;;;;12.58;64.97;102733.13;5029817;28;20473;-73
2022/11/11 03:19:43;;;;;;;24.42;22.77;;;;;;;12.59;64.81;102728.53;5025966;28;20075;-71
2022/11/11 03:22:08;;;;;;;24.45;22.80;;;;;;;12.58;65.41;102727.72;5011623;28;20061;-71
2022/11/11 03:27:18;;;;;;;26.52;24.73;;;;;;;12.56;64.90;102733.34;5010534;28;20196;-71
2022/11/11 03:29:43;;;;;;;27.65;24.75;;;;;;;12.56;64.87;102738.75;5018476;28;20120;-71
2022/11/11 03:32:08;;;;;;;26.65;24.63;;;;;;;12.56;64.70;102724.38;5010660;28;20029;-71
2022/11/11 03:34:35;;;;;;;23.63;21.77;;;;;;;12.55;65.13;102731.69;5018270;28;20037;-71
2022/11/11 03:39:44;;;;;;;24.30;22.60;;;;;;;12.56;65.09;102724.38;5015128;28;20057;-71
2022/11/11 03:42:09;;;;;;;27.50;25.33;;;;;;;12.55;64.98;102723.53;5029419;28;20018;-71
2022/11/11 03:44:35;;;;;;;23.55;22.15;;;;;;;12.56;64.80;102724.38;5017169;28;20038;-71
2022/11/11 03:47:00;;;;;;;21.60;20.17;;;;;;;12.55;64.98;102723.53;5028158;28;20046;-71
2022/11/11 03:49:25;;;;;;;22.90;21.25;;;;;;;12.56;64.85;102727.91;5013951;28;20045;-74
2022/11/11 03:51:51;;;;;;;22.98;21.58;;;;;;;12.55;64.96;102725.44;5028868;28;20033;-71
2022/11/11 03:54:16;;;;;;;25.38;23.20;;;;;;;12.55;65.08;102709.16;5013754;28;20045;-71
2022/11/11 03:56:41;;;;;;;23.15;21.55;;;;;;;12.55;64.87;102730.84;5046635;28;20029;-72
2022/11/11 03:59:07;;;;;;;23.05;21.77;;;;;;;12.54;65.08;102730.00;5013900;28;20029;-74
2022/11/11 04:10:26;;;;;;;24.55;22.50;;;;;;;12.52;64.97;102745.66;5014388;28;20048;-71
2022/11/11 04:16:04;;;;;;;22.67;21.17;;;;;;;12.52;64.99;102742.09;5040180;28;20037;-71
2022/11/11 04:18:04;;;;;;;24.42;22.73;;;;;;;12.51;64.93;102748.56;5032225;28;20691;-72
2022/11/11 04:23:13;;;;;;;25.00;23.15;;;;;;;12.50;65.00;102757.75;5018258;28;20079;-71
2022/11/11 04:25:48;;;;;;;24.15;22.48;;;;;;;12.50;64.93;102749.59;5024108;28;20033;-71
2022/11/11 04:30:57;;;;;;;24.23;22.52;;;;;;;12.50;64.98;102760.44;5034943;28;20531;-70
2022/11/11 04:33:22;;;;;;;27.40;25.35;;;;;;;12.49;65.08;102754.16;5038167;28;20041;-70
2022/11/11 04:35:49;;;;;;;24.55;22.88;;;;;;;12.49;64.93;102756.88;5013822;28;20458;-70
2022/11/11 04:41:04;;;;;;;25.77;23.63;;;;;;;12.48;64.95;102759.81;5023697;28;20695;-70
2022/11/11 04:43:30;;;;;;;23.60;21.67;;;;;;;12.48;64.92;102759.81;5025607;28;20048;-70
2022/11/11 04:45:59;;;;;;;23.73;22.23;;;;;;;12.46;64.85;102754.59;5030385;28;20129;-70
2022/11/11 04:48:25;;;;;;;27.00;24.25;;;;;;;12.47;65.02;102750.84;5011697;28;20490;-70
2022/11/11 04:50:51;;;;;;;22.83;21.13;;;;;;;12.47;65.16;102750.84;5017602;28;20024;-73
2022/11/11 04:53:16;;;;;;;24.20;22.70;;;;;;;12.47;64.93;102748.16;5033685;28;20041;-71
2022/11/11 04:58:29;;;;;;;26.73;24.75;;;;;;;12.46;64.60;102743.75;5014873;28;20041;-72
2022/11/11 05:00:55;;;;;;;24.60;22.88;;;;;;;12.46;64.96;102749.16;5012999;28;20030;-71
2022/11/11 05:03:23;;;;;;;25.35;23.38;;;;;;;12.45;65.01;102749.41;5030963;28;20041;-70
2022/11/11 05:08:55;;;;;;;24.30;22.38;;;;;;;12.46;64.95;102751.06;5032555;28;20099;-72
2022/11/11 05:11:33;;;;;;;23.15;21.50;;;;;;;12.46;64.88;102745.63;5031981;28;20063;-72
2022/11/11 05:22:22;;;;;;;26.33;24.10;;;;;;;12.43;64.83;102756.88;5016068;28;20044;-70
2022/11/11 05:27:31;;;;;;;25.27;23.42;;;;;;;12.42;65.05;102755.19;5012317;28;20489;-70
2022/11/11 05:29:57;;;;;;;25.13;23.08;;;;;;;12.42;64.91;102750.59;5011292;28;20026;-71
2022/11/11 05:32:23;;;;;;;23.88;22.33;;;;;;;12.42;64.90;102758.75;5012178;28;20034;-71
2022/11/11 05:34:49;;;;;;;23.00;21.58;;;;;;;12.41;65.06;102757.09;5026080;28;20072;-71
2022/11/11 05:37:15;;;;;;;22.05;20.45;;;;;;;12.41;64.83;102759.78;5032097;28;20079;-72
2022/11/11 05:39:40;;;;;;;24.77;22.70;;;;;;;12.41;65.06;102770.63;5031736;28;20033;-71
2022/11/11 05:42:07;;;;;;;25.85;23.67;;;;;;;12.41;64.70;102761.69;5031819;28;20186;-71
2022/11/11 05:44:32;;;;;;;27.88;25.90;;;;;;;12.41;64.98;102765.22;5029112;28;20033;-71
2022/11/11 05:46:57;;;;;;;24.98;22.77;;;;;;;12.41;64.88;102764.38;5019137;28;20037;-70
2022/11/11 05:49:24;;;;;;;25.70;23.40;;;;;;;12.41;65.00;102761.69;5012052;28;20032;-71
2022/11/11 05:51:50;;;;;;;24.08;22.63;;;;;;;12.41;64.95;102762.50;5012415;28;20046;-75
2022/11/11 05:54:16;;;;;;;23.30;21.70;;;;;;;12.40;64.97;102762.69;5017951;28;20351;-73
2022/11/11 05:56:42;;;;;;;24.95;23.27;;;;;;;12.41;64.70;102756.25;5027532;28;20472;-70
2022/11/11 05:59:08;;;;;;;25.13;22.60;;;;;;;12.41;65.03;102761.69;5019050;28;20018;-70
2022/11/11 06:01:34;;;;;;;24.92;23.10;;;;;;;12.39;64.82;102759.16;5011407;28;20030;-70
2022/11/11 06:04:00;;;;;;;24.35;22.48;;;;;;;12.40;64.80;102760.00;5016749;28;20212;-71
2022/11/11 06:06:26;;;;;;;25.33;23.13;;;;;;;12.39;64.84;102756.44;5027053;28;20151;-71
2022/11/11 06:08:51;;;;;;;24.48;22.50;;;;;;;12.39;64.64;102758.34;5024551;28;20038;-71
2022/11/11 06:11:17;;;;;;;23.55;21.95;;;;;;;12.39;64.70;102770.00;5011825;28;20417;-70
2022/11/11 06:13:42;;;;;;;23.80;22.08;;;;;;;12.38;64.85;102765.63;5010961;28;20466;-72
2022/11/11 06:16:08;;;;;;;25.10;23.25;;;;;;;12.38;64.70;102765.63;5031142;28;20037;-72
2022/11/11 06:18:33;;;;;;;24.67;22.85;;;;;;;12.37;64.92;102763.13;5030543;28;20037;-72
2022/11/11 06:20:59;;;;;;;23.85;22.25;;;;;;;12.37;64.79;102763.13;5030519;28;20036;-72
2022/11/11 06:23:26;;;;;;;24.27;22.75;;;;;;;12.36;64.68;102762.28;5030610;28;20052;-72
2022/11/11 06:28:36;;;;;;;25.42;23.35;;;;;;;12.35;64.89;102763.34;5013210;28;20041;-70
2022/11/11 06:31:02;;;;;;;21.75;20.35;;;;;;;12.34;64.86;102767.06;5011496;28;20485;-72
2022/11/11 06:33:28;;;;;;;23.88;22.27;;;;;;;12.35;64.90;102774.19;5011583;28;20699;-71
2022/11/11 06:35:53;;;;;;;21.52;20.17;;;;;;;12.34;64.70;102777.91;5020472;28;20052;-71
2022/11/11 06:38:19;;;;;;;22.98;21.63;;;;;;;12.33;64.76;102770.84;5035082;28;20037;-70
2022/11/11 06:40:45;;;;;;;23.67;22.17;;;;;;;12.33;64.85;102776.25;5014733;28;20441;-71
2022/11/11 06:43:10;;;;;;;24.63;22.75;;;;;;;12.32;64.75;102780.84;5011181;28;20026;-71
2022/11/11 06:45:35;;;;;;;25.35;23.17;;;;;;;12.31;64.63;102783.75;5010884;28;20058;-71
2022/11/11 06:48:02;;;;;;;26.15;24.35;;;;;;;12.32;64.72;102779.97;5030840;28;20033;-71
2022/11/11 06:50:28;;;;;;;25.77;23.52;;;;;;;12.31;64.40;102781.88;5011459;28;20045;-71
2022/11/11 06:52:54;;;;;;;23.23;21.48;;;;;;;12.30;64.91;102782.09;5011695;28;20374;-70
2022/11/11 06:55:19;;;;;;;22.52;21.13;;;;;;;12.30;64.81;102787.50;5011536;28;20084;-71
2022/11/11 06:57:45;;;;;;;24.33;22.63;;;;;;;12.29;64.76;102786.66;5032040;28;20041;-71
2022/11/11 07:00:11;;;;;;;23.33;21.70;;;;;;;12.29;64.96;102786.66;5031727;28;20429;-71
2022/11/11 07:02:36;;;;;;;24.33;22.60;;;;;;;12.28;64.72;102771.44;5030099;28;20108;-71
2022/11/11 07:05:02;;;;;;;25.08;23.48;;;;;;;12.27;64.81;102782.47;5031324;28;20361;-71
2022/11/11 07:07:28;;;;;;;23.42;22.02;;;;;;;12.26;64.94;102776.22;5030045;28;20485;-72
2022/11/11 07:09:56;;;;;;;21.88;20.45;;;;;;;12.26;64.93;102775.41;5033105;28;20061;-71
2022/11/11 07:12:22;;;;;;;23.55;22.02;;;;;;;12.26;64.86;102786.22;5012129;28;20036;-71
2022/11/11 07:14:48;;;;;;;24.38;22.77;;;;;;;12.25;64.85;102788.13;5014402;28;20036;-70
2022/11/11 07:17:13;;;;;;;23.15;21.73;;;;;;;12.24;64.65;102782.88;5015832;28;20502;-71
2022/11/11 07:19:39;;;;;;;26.42;24.63;;;;;;;12.23;64.63;102792.06;5036887;28;20040;-71
2022/11/11 07:22:04;;;;;;;21.75;20.55;;;;;;;12.23;64.89;102794.78;5042739;28;20037;-71
2022/11/11 07:24:30;;;;;;;23.67;22.13;;;;;;;12.22;64.74;102799.38;5049799;28;20064;-72
2022/11/11 07:26:55;;;;;;;21.73;20.30;;;;;;;12.22;64.90;102796.66;5035075;28;20065;-71
2022/11/11 07:29:21;;;;;;;20.95;19.75;;;;;;;12.22;64.78;102809.34;5039731;28;20040;-72
2022/11/11 07:31:46;;;;;;;25.05;23.45;;;;;;;12.21;64.66;102800.38;5030218;28;20047;-71
2022/11/11 07:34:11;;;;;;;22.88;21.27;;;;;;;12.20;64.97;102804.16;5033897;28;20112;-71
2022/11/11 07:36:37;;;;;;;22.55;21.20;;;;;;;12.20;64.68;102809.56;5033433;28;20153;-71
2022/11/11 07:39:02;;;;;;;22.92;21.42;;;;;;;12.20;64.74;102811.44;5034765;28;20075;-71
2022/11/11 07:41:27;;;;;;;24.02;22.38;;;;;;;12.20;64.89;102819.56;5035204;28;20030;-70
2022/11/11 07:43:53;;;;;;;23.10;21.42;;;;;;;12.19;64.56;102826.00;5013694;28;20357;-71
2022/11/11 07:46:18;;;;;;;24.38;22.52;;;;;;;12.18;64.92;102827.91;5014804;28;20096;-71
2022/11/11 07:48:44;;;;;;;23.98;22.17;;;;;;;12.18;64.55;102838.72;5014846;28;20026;-71
2022/11/11 07:51:09;;;;;;;22.42;20.92;;;;;;;12.19;64.84;102845.81;5029124;28;20083;-71
2022/11/11 07:53:34;;;;;;;25.65;23.65;;;;;;;12.18;64.80;102851.44;5030478;28;20022;-71
2022/11/11 07:56:00;;;;;;;23.33;21.83;;;;;;;12.17;64.85;102847.91;5015239;28;20045;-70
2022/11/11 07:58:25;;;;;;;22.15;20.85;;;;;;;12.17;64.67;102852.47;5015396;28;20053;-71
2022/11/11 08:00:51;;;;;;;22.75;21.35;;;;;;;12.16;64.72;102856.22;5024576;28;20064;-71
2022/11/11 08:03:16;;;;;;;21.73;20.45;;;;;;;12.16;64.85;102861.66;5019560;28;20029;-71
2022/11/11 08:05:41;;;;;;;23.95;22.30;;;;;;;12.16;64.71;102877.91;5013594;28;20062;-70
2022/11/11 08:08:08;;;;;;;25.25;23.35;;;;;;;12.15;64.83;102873.53;5014548;28;20447;-70
2022/11/11 08:10:35;;;;;;;26.88;24.52;;;;;;;12.15;64.81;102876.25;5016610;28;20025;-72
2022/11/11 08:15:45;;;;;;;23.30;21.65;;;;;;;12.13;64.57;102879.97;5019471;28;20397;-70
2022/11/11 08:18:10;;;;;;;21.90;20.08;;;;;;;12.11;64.47;102881.19;5013970;28;20034;-70
2022/11/11 08:20:37;;;;;;;24.33;22.77;;;;;;;12.12;64.57;102888.31;5013283;28;20034;-72
2022/11/11 08:23:09;;;;;;;23.13;21.60;;;;;;;12.12;64.79;102888.31;5025900;28;20037;-70
2022/11/11 08:25:36;;;;;;;22.77;21.38;;;;;;;12.11;64.86;102892.88;5013743;28;20034;-73
2022/11/11 08:28:03;;;;;;;21.05;19.85;;;;;;;12.10;64.91;102891.22;5019966;28;20030;-70
2022/11/11 08:30:30;;;;;;;24.27;22.75;;;;;;;12.10;64.77;102893.09;5018988;28;20029;-70
2022/11/11 08:33:03;;;;;;;23.02;21.60;;;;;;;12.09;64.79;102888.69;5026470;28;20021;-71
2022/11/11 08:35:30;;;;;;;22.02;20.63;;;;;;;12.08;64.70;102897.88;5017601;28;20461;-70
2022/11/11 08:38:00;;;;;;;23.95;22.52;;;;;;;12.08;64.92;102893.28;5019934;28;20629;-71
2022/11/11 08:40:26;;;;;;;23.42;22.02;;;;;;;12.08;64.47;102906.00;5021295;28;20034;-71
2022/11/11 08:42:56;;;;;;;23.27;21.88;;;;;;;12.06;64.74;102900.75;5016975;28;20044;-71
2022/11/11 08:45:22;;;;;;;23.15;21.35;;;;;;;12.07;64.63;102902.44;5021798;28;20029;-71
2022/11/11 08:47:47;;;;;;;24.98;23.33;;;;;;;12.05;64.49;102909.94;5023317;28;20073;-73
2022/11/11 08:50:13;;;;;;;23.63;22.05;;;;;;;12.06;64.69;102913.47;5029243;28;20046;-71
2022/11/11 08:52:45;;;;;;;24.20;22.60;;;;;;;12.05;64.67;102909.94;5015969;28;20049;-73
2022/11/11 08:55:10;;;;;;;21.98;20.67;;;;;;;12.05;64.80;102914.53;5024143;28;20034;-71
2022/11/11 08:57:35;;;;;;;21.60;20.38;;;;;;;12.04;64.93;102910.13;5014965;28;20025;-71
2022/11/11 09:00:03;;;;;;;22.48;21.10;;;;;;;12.04;64.55;102919.09;5018893;28;20028;-70
2022/11/11 09:02:28;;;;;;;24.13;22.38;;;;;;;12.04;64.47;102923.66;5025614;28;20029;-71
2022/11/11 09:04:54;;;;;;;24.58;22.90;;;;;;;12.04;64.74;102929.09;5015133;28;20111;-70
2022/11/11 09:07:19;;;;;;;26.45;24.30;;;;;;;12.03;64.51;102920.13;5022439;28;20021;-70
2022/11/11 09:09:45;;;;;;;25.60;23.90;;;;;;;12.02;64.47;102914.91;5026450;28;20038;-70
2022/11/11 09:12:10;;;;;;;26.75;24.80;;;;;;;12.02;64.62;102917.59;5025678;28;20037;-70
2022/11/11 09:14:36;;;;;;;26.20;24.17;;;;;;;12.03;64.44;102916.59;5021422;28;20033;-70
2022/11/11 09:17:01;;;;;;;24.63;22.92;;;;;;;12.02;64.56;102909.47;5013307;28;20065;-72
2022/11/11 09:19:27;;;;;;;25.52;23.73;;;;;;;12.03;64.72;102925.53;5013380;28;20429;-72
2022/11/11 09:21:52;;;;;;;27.58;25.50;;;;;;;12.03;64.59;102922.00;5025795;28;20401;-72
2022/11/11 09:24:17;;;;;;;24.85;23.30;;;;;;;12.02;64.51;102920.31;5022271;28;20038;-72
2022/11/11 09:26:43;;;;;;;24.33;22.63;;;;;;;12.01;64.71;102916.78;5017635;28;20030;-71
2022/11/11 09:29:08;;;;;;;21.40;20.27;;;;;;;12.02;64.57;102915.75;5023087;28;20037;-70
2022/11/11 09:31:33;;;;;;;27.83;25.58;;;;;;;12.01;64.72;102915.94;5017208;28;20057;-71
2022/11/11 09:33:59;;;;;;;27.20;25.27;;;;;;;12.02;64.67;102917.59;5027447;28;20040;-74
2022/11/11 09:36:25;;;;;;;23.35;21.92;;;;;;;12.01;64.70;102916.78;5018178;28;20397;-71
2022/11/11 09:38:50;;;;;;;24.90;23.38;;;;;;;12.01;64.68;102914.06;5021451;28;20049;-70
2022/11/11 09:41:54;;;;;;;27.55;25.25;;;;;;;12.01;64.76;102922.19;5022019;28;20131;-71
2022/11/11 09:44:35;;;;;;;23.33;21.65;;;;;;;12.00;64.82;102922.41;5022628;28;20061;-69
2022/11/11 09:47:17;;;;;;;23.38;21.83;;;;;;;12.00;64.41;102922.41;5025768;28;20079;-71
2022/11/11 09:49:57;;;;;;;25.67;23.88;;;;;;;12.00;64.64;102925.94;5016031;28;20176;-71
2022/11/11 09:52:51;;;;;;;24.73;22.75;;;;;;;12.00;64.65;102934.06;5026860;28;20449;-71
2022/11/11 09:55:22;;;;;;;22.88;21.48;;;;;;;12.00;64.64;102925.94;5023345;28;20474;-71
2022/11/11 09:57:58;;;;;;;26.63;24.55;;;;;;;12.00;64.88;102934.06;5019691;28;20533;-71
2022/11/11 10:00:29;;;;;;;21.40;20.23;;;;;;;12.00;64.88;102931.38;5025449;28;20108;-71
2022/11/11 10:03:21;;;;;;;24.35;22.67;;;;;;;12.02;64.98;102936.56;5020229;28;20041;-71
2022/11/11 10:06:02;;;;;;;24.05;22.45;;;;;;;12.00;64.87;102939.50;5022199;28;20467;-71
2022/11/11 10:08:39;;;;;;;24.90;23.02;;;;;;;12.01;64.56;102940.31;5015482;28;20117;-71
2022/11/11 10:11:14;;;;;;;25.00;22.85;;;;;;;12.01;64.77;102943.88;5021533;28;20085;-70
2022/11/11 10:13:39;;;;;;;23.30;21.77;;;;;;;12.01;64.60;102946.56;5015042;28;20037;-70
2022/11/11 10:16:10;;;;;;;23.48;22.05;;;;;;;12.01;64.77;102940.31;5021944;28;20044;-71
2022/11/11 10:19:07;;;;;;;25.70;23.55;;;;;;;12.02;64.98;102947.41;5025025;28;20087;-71
2022/11/11 10:21:43;;;;;;;27.15;25.13;;;;;;;12.02;64.73;102947.41;5013450;28;20038;-71
2022/11/11 10:24:16;;;;;;;24.38;22.77;;;;;;;12.01;64.58;102951.16;5025514;28;20061;-71
2022/11/11 10:26:44;;;;;;;23.55;22.05;;;;;;;12.01;64.67;102949.28;5027846;28;20038;-70
2022/11/11 10:29:21;;;;;;;25.40;23.55;;;;;;;12.02;64.79;102948.28;5024459;28;20026;-70
2022/11/11 10:32:08;;;;;;;24.10;22.38;;;;;;;12.02;64.76;102958.25;5024945;28;20386;-73
2022/11/11 10:34:35;;;;;;;27.83;25.85;;;;;;;12.03;64.92;102957.22;5025380;28;20103;-71
2022/11/11 10:37:02;;;;;;;24.70;23.00;;;;;;;12.04;64.46;102957.00;5016256;28;20048;-71
2022/11/11 10:39:55;;;;;;;26.38;24.10;;;;;;;12.04;64.81;102948.06;5016059;28;20025;-71
2022/11/11 10:42:20;;;;;;;24.33;22.42;;;;;;;12.05;64.68;102947.03;5012368;28;20067;-71
2022/11/11 10:44:46;;;;;;;24.50;22.70;;;;;;;12.06;64.79;102943.28;5031823;28;20484;-72
2022/11/11 10:47:43;;;;;;;23.75;21.83;;;;;;;12.07;64.67;102940.38;5011127;28;20080;-70
2022/11/11 10:50:20;;;;;;;24.48;22.52;;;;;;;12.07;64.60;102940.38;5006149;28;20041;-69
2022/11/11 10:52:48;;;;;;;24.38;22.75;;;;;;;12.09;64.54;102941.00;5021434;28;20067;-70
2022/11/11 10:55:21;;;;;;;24.10;22.17;;;;;;;12.09;64.50;102940.16;5028306;28;20029;-72
2022/11/11 10:58:08;;;;;;;24.80;22.88;;;;;;;12.11;64.38;102938.94;5021617;28;20048;-71
2022/11/11 11:00:36;;;;;;;28.40;26.15;;;;;;;12.11;64.48;102946.22;5022542;28;20026;-70
2022/11/11 11:03:15;;;;;;;27.60;25.27;;;;;;;12.12;64.58;102950.63;5027652;28;20029;-70
2022/11/11 11:05:53;;;;;;;24.33;22.67;;;;;;;12.12;64.48;102940.63;5019331;28;20100;-69
2022/11/11 11:08:26;;;;;;;25.23;23.15;;;;;;;12.11;64.33;102935.38;5021462;28;20049;-71
2022/11/11 11:10:58;;;;;;;24.13;22.15;;;;;;;12.11;64.88;102930.81;5036985;28;20377;-70
2022/11/11 11:13:42;;;;;;;25.00;23.02;;;;;;;12.13;64.52;102933.31;5015792;28;20072;-71
2022/11/11 11:16:45;;;;;;;28.88;26.58;;;;;;;12.12;64.58;102924.38;5024457;28;20080;-69
2022/11/11 11:19:13;;;;;;;25.05;23.25;;;;;;;12.13;64.60;102928.72;5018993;28;20123;-70
2022/11/11 11:21:54;;;;;;;21.95;20.52;;;;;;;12.14;64.80;102916.00;5020409;28;20054;-72
2022/11/11 11:24:30;;;;;;;26.08;24.17;;;;;;;12.13;64.75;102920.59;5024545;28;20037;-71
2022/11/11 11:26:58;;;;;;;25.67;23.60;;;;;;;12.14;64.59;102924.16;5012941;28;20157;-70
2022/11/11 11:29:28;;;;;;;25.40;23.27;;;;;;;12.14;64.83;102924.16;5021750;28;20033;-70
2022/11/11 11:31:54;;;;;;;26.13;24.25;;;;;;;12.15;64.85;102920.41;5015124;28;20150;-70
2022/11/11 11:34:20;;;;;;;24.77;22.55;;;;;;;12.15;64.91;102925.00;5018092;28;20211;-72
2022/11/11 11:37:01;;;;;;;25.70;23.60;;;;;;;12.17;64.78;102920.19;5037221;28;20483;-71
2022/11/11 11:39:38;;;;;;;28.17;26.05;;;;;;;12.16;64.77;102922.06;5020469;28;20553;-72
2022/11/11 11:42:04;;;;;;;24.90;23.10;;;;;;;12.17;64.63;102923.78;5018638;28;20092;-71
2022/11/11 11:44:32;;;;;;;23.63;22.17;;;;;;;12.17;64.71;102915.63;5031177;28;20056;-70
2022/11/11 11:47:24;;;;;;;25.25;23.10;;;;;;;12.18;64.60;102917.31;5038947;28;20452;-71
2022/11/11 11:50:22;;;;;;;24.67;22.55;;;;;;;12.19;64.78;102923.56;5022297;28;20479;-71
2022/11/11 11:53:16;;;;;;;24.45;22.85;;;;;;;12.19;64.64;102921.66;5037977;28;20451;-71
2022/11/11 11:55:47;;;;;;;25.80;23.70;;;;;;;12.19;64.78;102916.25;5015181;28;20050;-71
2022/11/11 11:58:43;;;;;;;23.02;21.52;;;;;;;12.21;64.92;102905.22;5019150;28;20513;-71
2022/11/11 12:01:30;;;;;;;23.48;22.02;;;;;;;12.22;64.83;102912.31;5022302;28;20038;-70
2022/11/11 12:04:07;;;;;;;23.77;22.25;;;;;;;12.23;64.65;102908.56;5019594;28;20398;-70
2022/11/11 12:06:41;;;;;;;23.08;21.52;;;;;;;12.23;64.80;102914.00;5025576;28;20069;-71
2022/11/11 12:09:26;;;;;;;24.52;22.52;;;;;;;12.24;64.70;102912.94;5024777;28;20026;-71
2022/11/11 12:12:21;;;;;;;24.60;22.70;;;;;;;12.26;64.59;102910.88;5023473;28;20017;-70
2022/11/11 12:15:03;;;;;;;22.63;20.90;;;;;;;12.26;64.92;102913.59;5013108;28;20022;-70
2022/11/11 12:17:47;;;;;;;21.90;20.60;;;;;;;12.28;64.82;102911.53;5013197;28;20034;-71
2022/11/11 12:20:41;;;;;;;22.77;21.27;;;;;;;12.27;64.56;102910.69;5015755;28;20040;-71
2022/11/11 12:23:59;;;;;;;26.27;24.33;;;;;;;12.29;64.79;102900.47;5044215;28;20428;-70
2022/11/11 12:26:41;;;;;;;24.50;22.53;;;;;;;12.29;64.72;102895.03;5043975;28;20033;-70
2022/11/11 12:29:50;;;;;;;23.40;21.83;;;;;;;12.33;64.78;102881.94;5036293;28;20295;-71
2022/11/11 12:32:31;;;;;;;25.23;23.50;;;;;;;12.33;64.70;102890.91;5027437;28;20100;-70
2022/11/11 12:34:59;;;;;;;23.25;21.30;;;;;;;12.34;64.77;102892.56;5032322;28;20040;-69